sensor_id;sensor_type;location;lat;lon;timestamp;temperature;humidity
22917;DHT22;11624;53.250;7.456;2023-08-24T00:02:14;22.22;53.01
22917;DHT22;11624;53.250;7.456;2023-08-24T00:04:43;22.19;53.07
22917;DHT22;11624;53.250;7.456;2023-08-24T00:07:11;22.16;53.10
22917;DHT22;11624;53.250;7.456;2023-08-24T00:09:39;22.12;53.20
22917;DHT22;11624;53.250;7.456;2023-08-24T00:12:08;22.11;53.20
22917;DHT22;11624;53.250;7.456;2023-08-24T00:14:37;22.07;53.28
22917;DHT22;11624;53.250;7.456;2023-08-24T00:17:05;22.03;53.27
22917;DHT22;11624;53.250;7.456;2023-08-24T00:19:34;22.01;53.27
22917;DHT22;11624;53.250;7.456;2023-08-24T00:22:02;21.97;53.31
22917;DHT22;11624;53.250;7.456;2023-08-24T00:24:30;21.94;53.36
22917;DHT22;11624;53.250;7.456;2023-08-24T00:26:58;21.93;53.43
22917;DHT22;11624;53.250;7.456;2023-08-24T00:29:26;21.90;53.47
22917;DHT22;11624;53.250;7.456;2023-08-24T00:31:54;21.88;53.51
22917;DHT22;11624;53.250;7.456;2023-08-24T00:34:23;21.83;53.54
22917;DHT22;11624;53.250;7.456;2023-08-24T00:36:54;21.82;53.52
22917;DHT22;11624;53.250;7.456;2023-08-24T00:39:23;21.78;53.56
22917;DHT22;11624;53.250;7.456;2023-08-24T00:41:51;21.73;53.61
22917;DHT22;11624;53.250;7.456;2023-08-24T00:44:19;21.72;53.65
22917;DHT22;11624;53.250;7.456;2023-08-24T00:46:47;21.67;53.69
22917;DHT22;11624;53.250;7.456;2023-08-24T00:49:15;21.65;53.65
22917;DHT22;11624;53.250;7.456;2023-08-24T00:51:45;21.63;53.62
22917;DHT22;11624;53.250;7.456;2023-08-24T00:54:15;21.61;53.62
22917;DHT22;11624;53.250;7.456;2023-08-24T00:56:44;21.58;53.75
22917;DHT22;11624;53.250;7.456;2023-08-24T00:59:12;21.55;53.72
22917;DHT22;11624;53.250;7.456;2023-08-24T01:01:41;21.57;53.72
22917;DHT22;11624;53.250;7.456;2023-08-24T01:04:11;21.53;53.78
22917;DHT22;11624;53.250;7.456;2023-08-24T01:06:40;21.52;53.79
22917;DHT22;11624;53.250;7.456;2023-08-24T01:09:08;21.50;53.88
22917;DHT22;11624;53.250;7.456;2023-08-24T01:11:45;21.50;53.43
22917;DHT22;11624;53.250;7.456;2023-08-24T01:14:21;21.51;53.50
22917;DHT22;11624;53.250;7.456;2023-08-24T01:16:54;21.51;53.92
22917;DHT22;11624;53.250;7.456;2023-08-24T01:19:37;21.50;53.51
22917;DHT22;11624;53.250;7.456;2023-08-24T01:22:08;21.50;54.00
22917;DHT22;11624;53.250;7.456;2023-08-24T01:24:47;21.51;53.81
22917;DHT22;11624;53.250;7.456;2023-08-24T01:27:18;21.53;54.04
22917;DHT22;11624;53.250;7.456;2023-08-24T01:29:46;21.53;54.22
22917;DHT22;11624;53.250;7.456;2023-08-24T01:32:15;21.54;54.21
22917;DHT22;11624;53.250;7.456;2023-08-24T01:34:43;21.54;54.31
22917;DHT22;11624;53.250;7.456;2023-08-24T01:37:11;21.57;54.38
22917;DHT22;11624;53.250;7.456;2023-08-24T01:39:44;21.59;54.26
22917;DHT22;11624;53.250;7.456;2023-08-24T01:42:20;21.60;54.17
22917;DHT22;11624;53.250;7.456;2023-08-24T01:44:51;21.63;54.55
22917;DHT22;11624;53.250;7.456;2023-08-24T01:47:21;21.64;54.55
22917;DHT22;11624;53.250;7.456;2023-08-24T01:49:49;21.68;54.65
22917;DHT22;11624;53.250;7.456;2023-08-24T01:52:18;21.72;54.65
22917;DHT22;11624;53.250;7.456;2023-08-24T01:54:47;21.74;54.63
22917;DHT22;11624;53.250;7.456;2023-08-24T01:57:15;21.75;54.69
22917;DHT22;11624;53.250;7.456;2023-08-24T01:59:45;21.79;54.69
22917;DHT22;11624;53.250;7.456;2023-08-24T02:02:13;21.80;54.70
22917;DHT22;11624;53.250;7.456;2023-08-24T02:04:41;21.82;54.74
22917;DHT22;11624;53.250;7.456;2023-08-24T02:07:09;21.83;54.73
22917;DHT22;11624;53.250;7.456;2023-08-24T02:09:37;21.85;54.75
22917;DHT22;11624;53.250;7.456;2023-08-24T02:12:06;21.85;54.75
22917;DHT22;11624;53.250;7.456;2023-08-24T02:14:35;21.87;54.78
22917;DHT22;11624;53.250;7.456;2023-08-24T02:17:04;21.90;54.78
22917;DHT22;11624;53.250;7.456;2023-08-24T02:19:32;21.92;54.83
22917;DHT22;11624;53.250;7.456;2023-08-24T02:22:00;21.92;54.87
22917;DHT22;11624;53.250;7.456;2023-08-24T02:24:29;21.93;54.94
22917;DHT22;11624;53.250;7.456;2023-08-24T02:26:57;21.93;55.04
22917;DHT22;11624;53.250;7.456;2023-08-24T02:29:25;21.95;55.10
22917;DHT22;11624;53.250;7.456;2023-08-24T02:31:53;21.97;55.13
22917;DHT22;11624;53.250;7.456;2023-08-24T02:34:23;21.97;55.22
22917;DHT22;11624;53.250;7.456;2023-08-24T02:36:51;21.98;55.33
22917;DHT22;11624;53.250;7.456;2023-08-24T02:39:19;21.97;55.39
22917;DHT22;11624;53.250;7.456;2023-08-24T02:41:47;22.01;55.45
22917;DHT22;11624;53.250;7.456;2023-08-24T02:44:18;22.03;55.49
22917;DHT22;11624;53.250;7.456;2023-08-24T02:46:48;22.04;55.48
22917;DHT22;11624;53.250;7.456;2023-08-24T02:49:17;22.06;55.55
22917;DHT22;11624;53.250;7.456;2023-08-24T02:51:46;22.05;55.61
22917;DHT22;11624;53.250;7.456;2023-08-24T02:54:14;22.07;55.67
22917;DHT22;11624;53.250;7.456;2023-08-24T02:56:42;22.09;55.70
22917;DHT22;11624;53.250;7.456;2023-08-24T02:59:11;22.10;55.72
22917;DHT22;11624;53.250;7.456;2023-08-24T03:01:39;22.11;55.71
22917;DHT22;11624;53.250;7.456;2023-08-24T03:04:08;22.12;55.71
22917;DHT22;11624;53.250;7.456;2023-08-24T03:06:37;22.13;55.65
22917;DHT22;11624;53.250;7.456;2023-08-24T03:09:06;22.13;55.58
22917;DHT22;11624;53.250;7.456;2023-08-24T03:11:34;22.13;55.65
22917;DHT22;11624;53.250;7.456;2023-08-24T03:14:02;22.12;55.69
22917;DHT22;11624;53.250;7.456;2023-08-24T03:16:31;22.11;55.78
22917;DHT22;11624;53.250;7.456;2023-08-24T03:18:59;22.10;55.78
22917;DHT22;11624;53.250;7.456;2023-08-24T03:21:27;22.13;55.77
22917;DHT22;11624;53.250;7.456;2023-08-24T03:23:55;22.14;55.77
22917;DHT22;11624;53.250;7.456;2023-08-24T03:26:24;22.16;55.83
22917;DHT22;11624;53.250;7.456;2023-08-24T03:28:53;22.13;55.97
22917;DHT22;11624;53.250;7.456;2023-08-24T03:31:22;22.13;56.10
22917;DHT22;11624;53.250;7.456;2023-08-24T03:33:53;22.17;56.21
22917;DHT22;11624;53.250;7.456;2023-08-24T03:36:21;22.21;56.29
22917;DHT22;11624;53.250;7.456;2023-08-24T03:38:50;22.25;56.30
22917;DHT22;11624;53.250;7.456;2023-08-24T03:41:18;22.29;56.34
22917;DHT22;11624;53.250;7.456;2023-08-24T03:43:47;22.34;56.34
22917;DHT22;11624;53.250;7.456;2023-08-24T03:46:15;22.33;56.45
22917;DHT22;11624;53.250;7.456;2023-08-24T03:48:44;22.36;56.48
22917;DHT22;11624;53.250;7.456;2023-08-24T03:51:12;22.36;56.43
22917;DHT22;11624;53.250;7.456;2023-08-24T03:53:40;22.38;56.38
22917;DHT22;11624;53.250;7.456;2023-08-24T03:56:08;22.40;56.39
22917;DHT22;11624;53.250;7.456;2023-08-24T03:58:36;22.42;56.33
22917;DHT22;11624;53.250;7.456;2023-08-24T04:01:10;22.41;55.84
22917;DHT22;11624;53.250;7.456;2023-08-24T04:03:38;22.40;56.26
22917;DHT22;11624;53.250;7.456;2023-08-24T04:06:06;22.40;56.14
22917;DHT22;11624;53.250;7.456;2023-08-24T04:08:34;22.36;56.09
22917;DHT22;11624;53.250;7.456;2023-08-24T04:11:02;22.35;56.03
22917;DHT22;11624;53.250;7.456;2023-08-24T04:13:30;22.29;56.09
22917;DHT22;11624;53.250;7.456;2023-08-24T04:15:59;22.29;56.14
22917;DHT22;11624;53.250;7.456;2023-08-24T04:18:28;22.28;56.16
22917;DHT22;11624;53.250;7.456;2023-08-24T04:20:56;22.28;56.29
22917;DHT22;11624;53.250;7.456;2023-08-24T04:23:25;22.31;56.38
22917;DHT22;11624;53.250;7.456;2023-08-24T04:25:53;22.36;56.41
22917;DHT22;11624;53.250;7.456;2023-08-24T04:28:21;22.39;56.42
22917;DHT22;11624;53.250;7.456;2023-08-24T04:30:50;22.44;56.45
22917;DHT22;11624;53.250;7.456;2023-08-24T04:33:19;22.49;56.41
22917;DHT22;11624;53.250;7.456;2023-08-24T04:35:49;22.53;56.30
22917;DHT22;11624;53.250;7.456;2023-08-24T04:38:17;22.55;56.37
22917;DHT22;11624;53.250;7.456;2023-08-24T04:40:50;22.56;56.09
22917;DHT22;11624;53.250;7.456;2023-08-24T04:43:19;22.60;56.40
22917;DHT22;11624;53.250;7.456;2023-08-24T04:45:49;22.64;56.40
22917;DHT22;11624;53.250;7.456;2023-08-24T04:48:19;22.67;56.33
22917;DHT22;11624;53.250;7.456;2023-08-24T04:50:49;22.70;56.30
22917;DHT22;11624;53.250;7.456;2023-08-24T04:53:19;22.73;56.39
22917;DHT22;11624;53.250;7.456;2023-08-24T04:55:48;22.77;56.36
22917;DHT22;11624;53.250;7.456;2023-08-24T04:58:16;22.78;56.35
22917;DHT22;11624;53.250;7.456;2023-08-24T05:00:44;22.78;56.32
22917;DHT22;11624;53.250;7.456;2023-08-24T05:03:12;22.80;56.28
22917;DHT22;11624;53.250;7.456;2023-08-24T05:05:40;22.80;56.15
22917;DHT22;11624;53.250;7.456;2023-08-24T05:08:10;22.79;56.09
22917;DHT22;11624;53.250;7.456;2023-08-24T05:10:39;22.78;56.05
22917;DHT22;11624;53.250;7.456;2023-08-24T05:13:07;22.76;56.03
22917;DHT22;11624;53.250;7.456;2023-08-24T05:15:35;22.75;56.02
22917;DHT22;11624;53.250;7.456;2023-08-24T05:18:04;22.71;56.03
22917;DHT22;11624;53.250;7.456;2023-08-24T05:20:32;22.70;56.10
22917;DHT22;11624;53.250;7.456;2023-08-24T05:23:00;22.68;56.09
22917;DHT22;11624;53.250;7.456;2023-08-24T05:25:30;22.68;56.10
22917;DHT22;11624;53.250;7.456;2023-08-24T05:27:58;22.67;56.20
22917;DHT22;11624;53.250;7.456;2023-08-24T05:30:26;22.67;56.31
22917;DHT22;11624;53.250;7.456;2023-08-24T05:32:56;22.69;56.36
22917;DHT22;11624;53.250;7.456;2023-08-24T05:35:24;22.69;56.42
22917;DHT22;11624;53.250;7.456;2023-08-24T05:37:54;22.71;56.45
22917;DHT22;11624;53.250;7.456;2023-08-24T05:40:22;22.71;56.55
22917;DHT22;11624;53.250;7.456;2023-08-24T05:42:51;22.71;56.70
22917;DHT22;11624;53.250;7.456;2023-08-24T05:45:20;22.73;56.84
22917;DHT22;11624;53.250;7.456;2023-08-24T05:47:52;22.77;56.84
22917;DHT22;11624;53.250;7.456;2023-08-24T05:50:20;22.82;56.86
22917;DHT22;11624;53.250;7.456;2023-08-24T05:52:48;22.85;56.87
22917;DHT22;11624;53.250;7.456;2023-08-24T05:55:17;22.90;56.90
22917;DHT22;11624;53.250;7.456;2023-08-24T05:57:45;22.97;57.03
22917;DHT22;11624;53.250;7.456;2023-08-24T06:00:16;23.05;57.08
22917;DHT22;11624;53.250;7.456;2023-08-24T06:02:44;23.16;57.41
22917;DHT22;11624;53.250;7.456;2023-08-24T06:05:12;23.35;57.45
22917;DHT22;11624;53.250;7.456;2023-08-24T06:07:40;23.56;57.35
22917;DHT22;11624;53.250;7.456;2023-08-24T06:10:09;23.73;57.06
22917;DHT22;11624;53.250;7.456;2023-08-24T06:12:37;23.85;56.71
22917;DHT22;11624;53.250;7.456;2023-08-24T06:15:06;23.91;56.26
22917;DHT22;11624;53.250;7.456;2023-08-24T06:17:38;23.97;56.21
22917;DHT22;11624;53.250;7.456;2023-08-24T06:20:07;24.02;56.03
22917;DHT22;11624;53.250;7.456;2023-08-24T06:22:37;24.14;55.94
22917;DHT22;11624;53.250;7.456;2023-08-24T06:25:06;24.25;55.26
22917;DHT22;11624;53.250;7.456;2023-08-24T06:27:35;24.28;55.18
22917;DHT22;11624;53.250;7.456;2023-08-24T06:30:06;24.39;55.06
22917;DHT22;11624;53.250;7.456;2023-08-24T06:32:34;24.46;54.52
22917;DHT22;11624;53.250;7.456;2023-08-24T06:35:05;24.53;54.56
22917;DHT22;11624;53.250;7.456;2023-08-24T06:37:34;24.53;54.19
22917;DHT22;11624;53.250;7.456;2023-08-24T06:40:02;24.59;54.45
22917;DHT22;11624;53.250;7.456;2023-08-24T06:42:31;24.79;54.23
22917;DHT22;11624;53.250;7.456;2023-08-24T06:45:00;24.98;53.97
22917;DHT22;11624;53.250;7.456;2023-08-24T06:47:28;25.10;53.33
22917;DHT22;11624;53.250;7.456;2023-08-24T06:49:56;25.20;53.46
22917;DHT22;11624;53.250;7.456;2023-08-24T06:52:26;25.31;52.99
22917;DHT22;11624;53.250;7.456;2023-08-24T06:54:54;25.40;52.75
22917;DHT22;11624;53.250;7.456;2023-08-24T06:57:23;25.49;52.60
22917;DHT22;11624;53.250;7.456;2023-08-24T06:59:51;25.56;52.49
22917;DHT22;11624;53.250;7.456;2023-08-24T07:02:19;25.61;52.45
22917;DHT22;11624;53.250;7.456;2023-08-24T07:04:48;25.67;51.88
22917;DHT22;11624;53.250;7.456;2023-08-24T07:07:16;25.65;51.79
22917;DHT22;11624;53.250;7.456;2023-08-24T07:09:46;25.65;51.70
22917;DHT22;11624;53.250;7.456;2023-08-24T07:12:14;25.60;51.71
22917;DHT22;11624;53.250;7.456;2023-08-24T07:14:42;25.61;52.00
22917;DHT22;11624;53.250;7.456;2023-08-24T07:17:10;25.68;52.09
22917;DHT22;11624;53.250;7.456;2023-08-24T07:19:38;25.84;52.34
22917;DHT22;11624;53.250;7.456;2023-08-24T07:22:06;26.11;52.20
22917;DHT22;11624;53.250;7.456;2023-08-24T07:24:35;26.55;51.08
22917;DHT22;11624;53.250;7.456;2023-08-24T07:27:13;27.13;50.02
22917;DHT22;11624;53.250;7.456;2023-08-24T07:29:41;27.68;48.64
22917;DHT22;11624;53.250;7.456;2023-08-24T07:32:09;28.10;47.54
22917;DHT22;11624;53.250;7.456;2023-08-24T07:34:38;28.45;46.34
22917;DHT22;11624;53.250;7.456;2023-08-24T07:37:06;28.73;45.77
22917;DHT22;11624;53.250;7.456;2023-08-24T07:39:34;29.09;45.14
22917;DHT22;11624;53.250;7.456;2023-08-24T07:42:02;29.38;44.28
22917;DHT22;11624;53.250;7.456;2023-08-24T07:44:32;29.59;43.14
22917;DHT22;11624;53.250;7.456;2023-08-24T07:47:00;29.59;42.89
22917;DHT22;11624;53.250;7.456;2023-08-24T07:49:28;29.47;42.71
22917;DHT22;11624;53.250;7.456;2023-08-24T07:51:56;29.45;42.55
22917;DHT22;11624;53.250;7.456;2023-08-24T07:54:25;29.43;43.16
22917;DHT22;11624;53.250;7.456;2023-08-24T07:56:53;29.46;42.84
22917;DHT22;11624;53.250;7.456;2023-08-24T07:59:21;29.60;42.43
22917;DHT22;11624;53.250;7.456;2023-08-24T08:01:51;29.51;42.41
22917;DHT22;11624;53.250;7.456;2023-08-24T08:04:19;29.70;42.89
22917;DHT22;11624;53.250;7.456;2023-08-24T08:06:47;30.06;43.04
22917;DHT22;11624;53.250;7.456;2023-08-24T08:09:15;30.42;40.65
22917;DHT22;11624;53.250;7.456;2023-08-24T08:11:44;30.39;40.57
22917;DHT22;11624;53.250;7.456;2023-08-24T08:14:12;30.31;41.07
22917;DHT22;11624;53.250;7.456;2023-08-24T08:16:41;30.21;40.95
22917;DHT22;11624;53.250;7.456;2023-08-24T08:19:10;30.37;41.58
22917;DHT22;11624;53.250;7.456;2023-08-24T08:21:38;30.67;41.07
22917;DHT22;11624;53.250;7.456;2023-08-24T08:24:06;30.95;40.65
22917;DHT22;11624;53.250;7.456;2023-08-24T08:26:35;31.07;40.06
22917;DHT22;11624;53.250;7.456;2023-08-24T08:29:05;31.19;40.17
22917;DHT22;11624;53.250;7.456;2023-08-24T08:31:33;31.36;39.75
22917;DHT22;11624;53.250;7.456;2023-08-24T08:34:01;31.42;39.10
22917;DHT22;11624;53.250;7.456;2023-08-24T08:36:32;31.45;39.38
22917;DHT22;11624;53.250;7.456;2023-08-24T08:39:00;31.27;38.52
22917;DHT22;11624;53.250;7.456;2023-08-24T08:41:42;31.25;39.19
22917;DHT22;11624;53.250;7.456;2023-08-24T08:44:13;31.46;38.53
22917;DHT22;11624;53.250;7.456;2023-08-24T08:46:43;31.70;38.98
22917;DHT22;11624;53.250;7.456;2023-08-24T08:49:13;31.90;38.62
22917;DHT22;11624;53.250;7.456;2023-08-24T08:51:45;31.96;37.45
22917;DHT22;11624;53.250;7.456;2023-08-24T08:54:13;31.97;37.81
22917;DHT22;11624;53.250;7.456;2023-08-24T08:56:41;32.04;37.84
22917;DHT22;11624;53.250;7.456;2023-08-24T08:59:12;32.09;38.14
22917;DHT22;11624;53.250;7.456;2023-08-24T09:01:42;32.09;36.53
22917;DHT22;11624;53.250;7.456;2023-08-24T09:04:12;31.98;36.47
22917;DHT22;11624;53.250;7.456;2023-08-24T09:06:40;31.80;36.48
22917;DHT22;11624;53.250;7.456;2023-08-24T09:09:10;31.75;36.95
22917;DHT22;11624;53.250;7.456;2023-08-24T09:11:39;31.85;36.58
22917;DHT22;11624;53.250;7.456;2023-08-24T09:14:08;31.97;36.53
22917;DHT22;11624;53.250;7.456;2023-08-24T09:16:36;32.05;36.14
22917;DHT22;11624;53.250;7.456;2023-08-24T09:19:05;32.16;36.66
22917;DHT22;11624;53.250;7.456;2023-08-24T09:21:37;32.25;36.09
22917;DHT22;11624;53.250;7.456;2023-08-24T09:24:06;32.29;36.59
22917;DHT22;11624;53.250;7.456;2023-08-24T09:26:37;32.33;36.42
22917;DHT22;11624;53.250;7.456;2023-08-24T09:29:13;32.31;36.88
22917;DHT22;11624;53.250;7.456;2023-08-24T09:31:42;32.22;36.30
22917;DHT22;11624;53.250;7.456;2023-08-24T09:34:12;31.99;36.88
22917;DHT22;11624;53.250;7.456;2023-08-24T09:36:40;31.78;36.64
22917;DHT22;11624;53.250;7.456;2023-08-24T09:39:09;31.59;37.41
22917;DHT22;11624;53.250;7.456;2023-08-24T09:41:39;31.61;37.59
22917;DHT22;11624;53.250;7.456;2023-08-24T09:44:07;31.76;37.84
22917;DHT22;11624;53.250;7.456;2023-08-24T09:46:36;31.97;38.08
22917;DHT22;11624;53.250;7.456;2023-08-24T09:49:05;32.12;37.43
22917;DHT22;11624;53.250;7.456;2023-08-24T09:51:34;32.00;36.43
22917;DHT22;11624;53.250;7.456;2023-08-24T09:54:05;31.78;36.95
22917;DHT22;11624;53.250;7.456;2023-08-24T09:56:36;31.71;37.62
22917;DHT22;11624;53.250;7.456;2023-08-24T09:59:11;31.94;37.50
22917;DHT22;11624;53.250;7.456;2023-08-24T10:01:42;32.07;36.78
22917;DHT22;11624;53.250;7.456;2023-08-24T10:04:12;31.89;37.03
22917;DHT22;11624;53.250;7.456;2023-08-24T10:06:42;32.05;37.41
22917;DHT22;11624;53.250;7.456;2023-08-24T10:09:19;32.30;37.24
22917;DHT22;11624;53.250;7.456;2023-08-24T10:11:51;32.47;37.48
22917;DHT22;11624;53.250;7.456;2023-08-24T10:14:26;32.46;36.13
22917;DHT22;11624;53.250;7.456;2023-08-24T10:16:56;32.39;36.72
22917;DHT22;11624;53.250;7.456;2023-08-24T10:19:25;32.17;36.40
22917;DHT22;11624;53.250;7.456;2023-08-24T10:21:54;31.95;36.76
22917;DHT22;11624;53.250;7.456;2023-08-24T10:24:24;31.65;37.50
22917;DHT22;11624;53.250;7.456;2023-08-24T10:26:52;31.64;38.25
22917;DHT22;11624;53.250;7.456;2023-08-24T10:29:23;31.85;38.30
22917;DHT22;11624;53.250;7.456;2023-08-24T10:31:54;31.95;37.80
22917;DHT22;11624;53.250;7.456;2023-08-24T10:34:23;31.86;38.19
22917;DHT22;11624;53.250;7.456;2023-08-24T10:36:51;31.84;37.88
22917;DHT22;11624;53.250;7.456;2023-08-24T10:39:27;31.81;37.88
22917;DHT22;11624;53.250;7.456;2023-08-24T10:41:55;31.87;38.27
22917;DHT22;11624;53.250;7.456;2023-08-24T10:44:34;31.95;38.22
22917;DHT22;11624;53.250;7.456;2023-08-24T10:47:05;32.02;38.53
22917;DHT22;11624;53.250;7.456;2023-08-24T10:49:34;32.08;38.97
22917;DHT22;11624;53.250;7.456;2023-08-24T10:52:19;32.17;38.52
22917;DHT22;11624;53.250;7.456;2023-08-24T10:54:48;32.12;38.20
22917;DHT22;11624;53.250;7.456;2023-08-24T10:57:21;32.02;38.11
22917;DHT22;11624;53.250;7.456;2023-08-24T11:00:03;31.98;38.82
22917;DHT22;11624;53.250;7.456;2023-08-24T11:02:44;31.97;38.67
22917;DHT22;11624;53.250;7.456;2023-08-24T11:05:17;32.05;39.01
22917;DHT22;11624;53.250;7.456;2023-08-24T11:07:50;32.07;38.40
22917;DHT22;11624;53.250;7.456;2023-08-24T11:10:20;31.98;39.26
22917;DHT22;11624;53.250;7.456;2023-08-24T11:13:08;31.97;39.02
22917;DHT22;11624;53.250;7.456;2023-08-24T11:15:41;31.94;38.56
22917;DHT22;11624;53.250;7.456;2023-08-24T11:18:23;31.70;38.88
22917;DHT22;11624;53.250;7.456;2023-08-24T11:20:53;31.66;39.20
22917;DHT22;11624;53.250;7.456;2023-08-24T11:23:23;31.75;38.84
22917;DHT22;11624;53.250;7.456;2023-08-24T11:25:52;31.84;38.89
22917;DHT22;11624;53.250;7.456;2023-08-24T11:28:24;32.00;38.72
22917;DHT22;11624;53.250;7.456;2023-08-24T11:31:03;32.17;38.59
22917;DHT22;11624;53.250;7.456;2023-08-24T11:33:58;32.38;37.85
22917;DHT22;11624;53.250;7.456;2023-08-24T11:36:26;32.52;37.79
22917;DHT22;11624;53.250;7.456;2023-08-24T11:38:57;32.60;38.17
22917;DHT22;11624;53.250;7.456;2023-08-24T11:41:38;32.70;38.06
22917;DHT22;11624;53.250;7.456;2023-08-24T11:44:06;32.50;37.15
22917;DHT22;11624;53.250;7.456;2023-08-24T11:46:56;32.40;37.11
22917;DHT22;11624;53.250;7.456;2023-08-24T11:49:24;32.31;37.43
22917;DHT22;11624;53.250;7.456;2023-08-24T11:51:54;32.33;37.50
22917;DHT22;11624;53.250;7.456;2023-08-24T11:54:23;32.26;37.37
22917;DHT22;11624;53.250;7.456;2023-08-24T11:56:51;32.20;38.48
22917;DHT22;11624;53.250;7.456;2023-08-24T11:59:20;32.55;38.19
22917;DHT22;11624;53.250;7.456;2023-08-24T12:01:48;32.92;37.46
22917;DHT22;11624;53.250;7.456;2023-08-24T12:04:18;33.17;36.85
22917;DHT22;11624;53.250;7.456;2023-08-24T12:06:47;33.30;36.96
22917;DHT22;11624;53.250;7.456;2023-08-24T12:09:15;33.44;36.31
22917;DHT22;11624;53.250;7.456;2023-08-24T12:11:43;33.50;35.55
22917;DHT22;11624;53.250;7.456;2023-08-24T12:14:17;33.41;35.81
22917;DHT22;11624;53.250;7.456;2023-08-24T12:16:45;33.33;35.74
22917;DHT22;11624;53.250;7.456;2023-08-24T12:19:21;33.53;35.35
22917;DHT22;11624;53.250;7.456;2023-08-24T12:21:50;33.75;34.62
22917;DHT22;11624;53.250;7.456;2023-08-24T12:24:19;33.86;34.66
22917;DHT22;11624;53.250;7.456;2023-08-24T12:26:55;33.80;34.24
22917;DHT22;11624;53.250;7.456;2023-08-24T12:29:25;33.66;35.01
22917;DHT22;11624;53.250;7.456;2023-08-24T12:31:57;33.43;35.16
22917;DHT22;11624;53.250;7.456;2023-08-24T12:34:26;33.26;35.63
22917;DHT22;11624;53.250;7.456;2023-08-24T12:36:54;33.11;35.45
22917;DHT22;11624;53.250;7.456;2023-08-24T12:39:26;32.87;35.83
22917;DHT22;11624;53.250;7.456;2023-08-24T12:41:54;32.79;36.81
22917;DHT22;11624;53.250;7.456;2023-08-24T12:44:22;32.78;36.53
22917;DHT22;11624;53.250;7.456;2023-08-24T12:46:51;32.77;36.72
22917;DHT22;11624;53.250;7.456;2023-08-24T12:49:19;32.70;36.90
22917;DHT22;11624;53.250;7.456;2023-08-24T12:51:49;32.59;36.82
22917;DHT22;11624;53.250;7.456;2023-08-24T12:54:17;32.53;37.01
22917;DHT22;11624;53.250;7.456;2023-08-24T12:56:45;32.53;37.09
22917;DHT22;11624;53.250;7.456;2023-08-24T12:59:14;32.52;37.35
22917;DHT22;11624;53.250;7.456;2023-08-24T13:01:51;32.52;37.37
22917;DHT22;11624;53.250;7.456;2023-08-24T13:04:24;32.49;38.13
22917;DHT22;11624;53.250;7.456;2023-08-24T13:06:54;32.54;37.67
22917;DHT22;11624;53.250;7.456;2023-08-24T13:09:22;32.54;38.21
22917;DHT22;11624;53.250;7.456;2023-08-24T13:11:50;32.55;38.07
22917;DHT22;11624;53.250;7.456;2023-08-24T13:14:18;32.56;37.55
22917;DHT22;11624;53.250;7.456;2023-08-24T13:16:47;32.45;37.75
22917;DHT22;11624;53.250;7.456;2023-08-24T13:19:16;32.41;38.08
22917;DHT22;11624;53.250;7.456;2023-08-24T13:21:44;32.40;38.63
22917;DHT22;11624;53.250;7.456;2023-08-24T13:24:13;32.39;38.62
22917;DHT22;11624;53.250;7.456;2023-08-24T13:26:42;32.44;38.56
22917;DHT22;11624;53.250;7.456;2023-08-24T13:29:20;32.50;38.24
22917;DHT22;11624;53.250;7.456;2023-08-24T13:32:51;32.32;38.37
22917;DHT22;11624;53.250;7.456;2023-08-24T13:35:22;32.43;38.86
22917;DHT22;11624;53.250;7.456;2023-08-24T13:41:33;32.77;38.56
22917;DHT22;11624;53.250;7.456;2023-08-24T13:44:03;32.83;37.82
22917;DHT22;11624;53.250;7.456;2023-08-24T13:46:31;32.88;37.79
22917;DHT22;11624;53.250;7.456;2023-08-24T13:49:37;32.83;37.29
22917;DHT22;11624;53.250;7.456;2023-08-24T13:52:34;32.63;37.35
22917;DHT22;11624;53.250;7.456;2023-08-24T13:58:09;32.68;37.76
22917;DHT22;11624;53.250;7.456;2023-08-24T14:00:37;32.64;37.43
22917;DHT22;11624;53.250;7.456;2023-08-24T14:03:06;32.57;37.28
22917;DHT22;11624;53.250;7.456;2023-08-24T14:05:38;32.53;37.50
22917;DHT22;11624;53.250;7.456;2023-08-24T14:08:07;32.54;37.85
22917;DHT22;11624;53.250;7.456;2023-08-24T14:10:36;32.45;38.13
22917;DHT22;11624;53.250;7.456;2023-08-24T14:13:04;32.46;38.53
22917;DHT22;11624;53.250;7.456;2023-08-24T14:15:34;32.50;38.69
22917;DHT22;11624;53.250;7.456;2023-08-24T14:18:02;32.56;39.62
22917;DHT22;11624;53.250;7.456;2023-08-24T14:20:31;32.58;39.31
22917;DHT22;11624;53.250;7.456;2023-08-24T14:22:59;32.53;39.02
22917;DHT22;11624;53.250;7.456;2023-08-24T14:25:29;32.46;38.64
22917;DHT22;11624;53.250;7.456;2023-08-24T14:27:57;32.40;39.07
22917;DHT22;11624;53.250;7.456;2023-08-24T14:30:31;32.35;38.91
22917;DHT22;11624;53.250;7.456;2023-08-24T14:33:01;32.31;39.56
22917;DHT22;11624;53.250;7.456;2023-08-24T14:35:30;32.30;39.32
22917;DHT22;11624;53.250;7.456;2023-08-24T14:38:00;32.31;39.93
22917;DHT22;11624;53.250;7.456;2023-08-24T14:40:28;32.28;39.39
22917;DHT22;11624;53.250;7.456;2023-08-24T14:42:58;32.22;38.59
22917;DHT22;11624;53.250;7.456;2023-08-24T14:45:26;32.01;39.20
22917;DHT22;11624;53.250;7.456;2023-08-24T14:47:55;31.93;39.25
22917;DHT22;11624;53.250;7.456;2023-08-24T14:50:25;31.87;39.44
22917;DHT22;11624;53.250;7.456;2023-08-24T14:52:53;31.87;40.19
22917;DHT22;11624;53.250;7.456;2023-08-24T14:55:22;31.89;40.82
22917;DHT22;11624;53.250;7.456;2023-08-24T14:57:50;31.87;41.34
22917;DHT22;11624;53.250;7.456;2023-08-24T15:00:20;31.81;41.72
22917;DHT22;11624;53.250;7.456;2023-08-24T15:02:49;31.79;41.91
22917;DHT22;11624;53.250;7.456;2023-08-24T15:05:17;31.78;42.54
22917;DHT22;11624;53.250;7.456;2023-08-24T15:07:50;31.76;42.59
22917;DHT22;11624;53.250;7.456;2023-08-24T15:10:19;31.72;43.63
22917;DHT22;11624;53.250;7.456;2023-08-24T15:12:47;31.64;43.81
22917;DHT22;11624;53.250;7.456;2023-08-24T15:15:16;31.53;44.36
22917;DHT22;11624;53.250;7.456;2023-08-24T15:17:44;31.42;44.84
22917;DHT22;11624;53.250;7.456;2023-08-24T15:20:15;31.29;45.21
22917;DHT22;11624;53.250;7.456;2023-08-24T15:22:44;31.15;45.67
22917;DHT22;11624;53.250;7.456;2023-08-24T15:25:13;31.05;46.21
22917;DHT22;11624;53.250;7.456;2023-08-24T15:27:42;30.92;46.56
22917;DHT22;11624;53.250;7.456;2023-08-24T15:30:11;30.81;47.04
22917;DHT22;11624;53.250;7.456;2023-08-24T15:32:39;30.71;47.36
22917;DHT22;11624;53.250;7.456;2023-08-24T15:35:08;30.64;47.59
22917;DHT22;11624;53.250;7.456;2023-08-24T15:37:36;30.53;47.82
22917;DHT22;11624;53.250;7.456;2023-08-24T15:40:07;30.45;48.16
22917;DHT22;11624;53.250;7.456;2023-08-24T15:42:37;30.39;48.42
22917;DHT22;11624;53.250;7.456;2023-08-24T15:45:06;30.33;48.70
22917;DHT22;11624;53.250;7.456;2023-08-24T15:47:35;30.28;48.76
22917;DHT22;11624;53.250;7.456;2023-08-24T15:50:04;30.23;49.09
22917;DHT22;11624;53.250;7.456;2023-08-24T15:52:33;30.19;49.37
22917;DHT22;11624;53.250;7.456;2023-08-24T15:55:01;30.18;49.57